Time;durP1;ratioP1;P1;durP2;ratioP2;P2;SDS_P1;SDS_P2;PMS_P1;PMS_P2;Temp;Humidity;BMP_temperature;BMP_pressure;BME280_temperature;BME280_humidity;BME280_pressure;Samples;Min_cycle;Max_cycle;Signal;HPM_P1;HPM_P2
2022/01/18 00:00:41;;;;;;;1.85;0.98;;;;;;;7.06;31.78;93421.84;5026553;28;20045;-89
2022/01/18 00:03:33;;;;;;;2.40;1.05;;;;;;;7.08;31.63;93407.53;5013220;28;20487;-89
2022/01/18 00:06:03;;;;;;;0.65;0.60;;;;;;;6.84;31.72;93375.72;5005878;28;20038;-88
2022/01/18 00:08:37;;;;;;;1.10;0.80;;;;;;;6.89;31.95;93367.22;5026842;28;20029;-88
2022/01/18 00:11:23;;;;;;;;;;;;;;;;;;;;;
2022/01/18 00:13:59;;;;;;;1.30;0.90;;;;;;;7.24;32.06;93447.59;5030447;28;20060;-88
2022/01/18 00:16:38;;;;;;;1.70;0.93;;;;;;;6.80;31.89;93379.06;5030181;28;20029;-88
2022/01/18 00:19:14;;;;;;;1.33;0.90;;;;;;;7.09;31.97;93429.97;5009991;28;20026;-88
2022/01/18 00:22:11;;;;;;;1.55;1.00;;;;;;;6.76;32.19;93376.16;4995614;28;20048;-89
2022/01/18 00:24:49;;;;;;;1.55;0.90;;;;;;;6.93;31.93;93394.31;5030396;28;20490;-88
2022/01/18 00:27:28;;;;;;;1.30;0.80;;;;;;;7.04;32.34;93416.06;4998114;28;20482;-89
2022/01/18 00:30:36;;;;;;;1.42;0.90;;;;;;;7.25;32.23;93440.53;5013411;28;20426;-88
2022/01/18 00:33:19;;;;;;;1.33;0.90;;;;;;;7.29;32.23;93437.25;5001239;28;20052;-89
2022/01/18 00:35:57;;;;;;;1.15;0.80;;;;;;;7.01;32.27;93393.16;4999372;28;20029;-89
2022/01/18 00:41:42;;;;;;;;;;;;;;;;;;;;;
2022/01/18 00:44:14;;;;;;;1.27;0.85;;;;;;;6.97;32.38;93397.25;5006016;28;20037;-89
2022/01/18 00:46:48;;;;;;;1.58;1.00;;;;;;;7.23;32.57;93408.78;5011675;28;20037;-89
2022/01/18 00:49:19;;;;;;;1.02;0.73;;;;;;;6.95;32.37;93374.06;4978455;28;20129;-88
2022/01/18 00:51:55;;;;;;;1.75;1.00;;;;;;;6.93;32.45;93370.91;4997037;28;20036;-89
2022/01/18 00:54:33;;;;;;;3.40;0.88;;;;;;;6.92;32.68;93374.53;4996956;28;20048;-88
2022/01/18 00:57:08;;;;;;;2.08;0.95;;;;;;;7.24;32.52;93425.97;4984456;28;20045;-88
2022/01/18 00:59:41;;;;;;;1.42;0.82;;;;;;;6.81;32.99;93373.63;4994815;28;20057;-88
2022/01/18 01:02:16;;;;;;;0.77;0.73;;;;;;;7.23;33.07;93435.59;5012945;28;20061;-89
2022/01/18 01:05:00;;;;;;;5.05;1.02;;;;;;;6.97;32.69;93395.44;5029119;28;20120;-89
2022/01/18 01:07:39;;;;;;;1.45;1.00;;;;;;;6.83;32.74;93363.75;5029630;28;20034;-89
2022/01/18 01:10:12;;;;;;;1.63;1.00;;;;;;;6.83;32.45;93353.34;5010654;28;20699;-88
2022/01/18 01:12:43;;;;;;;2.00;1.00;;;;;;;7.17;32.42;93397.50;4993611;28;20042;-89
2022/01/18 01:15:21;;;;;;;1.60;0.80;;;;;;;6.90;32.52;93352.41;5009873;28;20034;-89
2022/01/18 01:18:09;;;;;;;2.17;1.20;;;;;;;7.21;32.51;93390.78;4997955;28;20041;-88
2022/01/18 01:32:55;;;;;;;2.25;1.00;;;;;;;7.39;32.51;93418.34;5016835;28;20045;-89
2022/01/18 01:35:38;;;;;;;0.77;0.70;;;;;;;7.37;32.51;93424.81;4984915;28;20130;-89
2022/01/18 01:46:14;;;;;;;1.05;0.80;;;;;;;7.38;31.96;93414.16;4996729;28;20034;-88
2022/01/18 01:48:41;;;;;;;5.47;0.85;;;;;;;7.52;31.96;93414.59;4990890;28;20356;-89
2022/01/18 01:51:07;;;;;;;1.25;0.73;;;;;;;7.46;32.16;93418.16;5016288;28;20042;-88
2022/01/18 01:53:43;;;;;;;2.50;1.17;;;;;;;7.30;32.10;93404.94;5033802;28;20026;-89
2022/01/18 01:56:11;;;;;;;3.15;0.98;;;;;;;7.22;32.47;93396.78;4999996;28;20430;-88
2022/01/18 01:58:46;;;;;;;1.05;0.90;;;;;;;7.09;32.40;93383.09;5016650;28;20047;-88
2022/01/18 02:01:21;;;;;;;2.10;1.10;;;;;;;6.79;32.39;93352.25;4984050;28;20049;-89
2022/01/18 02:03:50;;;;;;;1.92;0.95;;;;;;;6.79;32.25;93347.06;5012262;28;20045;-88
2022/01/18 02:06:35;;;;;;;1.15;0.82;;;;;;;6.84;31.87;93344.50;5017145;28;20036;-89
2022/01/18 02:09:01;;;;;;;0.68;0.60;;;;;;;7.24;30.69;93347.84;5016256;28;20037;-89
2022/01/18 02:11:30;;;;;;;4.50;0.73;;;;;;;7.82;29.54;93340.34;5015594;28;20047;-88
2022/01/18 02:14:06;;;;;;;0.40;0.40;;;;;;;8.28;29.92;93377.97;5031689;28;20030;-90
2022/01/18 02:22:05;;;;;;;1.83;0.77;;;;;;;7.87;31.04;93421.19;5017789;28;20038;-89
2022/01/18 02:24:31;;;;;;;4.28;0.80;;;;;;;7.80;30.96;93418.00;5015581;28;20039;-89
2022/01/18 02:27:02;;;;;;;0.80;0.77;;;;;;;7.72;30.69;93424.41;5014702;28;20049;-89
2022/01/18 02:29:41;;;;;;;;;;;;;;;;;;;;;
2022/01/18 02:32:10;;;;;;;1.80;0.98;;;;;;;7.07;32.06;93359.13;5001474;28;20284;-89
2022/01/18 02:34:38;;;;;;;1.25;0.75;;;;;;;7.35;31.42;93411.25;5027325;28;20037;-88
2022/01/18 02:37:11;;;;;;;4.43;0.90;;;;;;;6.90;31.93;93370.63;5012891;28;20030;-88
2022/01/18 02:39:46;;;;;;;1.23;0.82;;;;;;;6.73;32.44;93379.22;4997372;28;20053;-88
2022/01/18 02:42:15;;;;;;;1.48;0.75;;;;;;;6.59;32.64;93378.00;5013006;28;20092;-89
2022/01/18 02:44:42;;;;;;;1.30;0.80;;;;;;;6.46;32.73;93379.94;5033407;28;20374;-88
2022/01/18 02:47:11;;;;;;;1.65;0.75;;;;;;;6.68;32.37;93424.19;5015604;28;20057;-89
2022/01/18 02:49:37;;;;;;;2.45;0.90;;;;;;;7.22;30.76;93376.72;5032244;28;20481;-89
2022/01/18 02:52:06;;;;;;;1.30;0.80;;;;;;;6.98;31.17;93364.97;5033025;28;20471;-88
2022/01/18 02:54:41;;;;;;;1.33;0.90;;;;;;;6.96;30.73;93367.03;5031869;28;20056;-89
2022/01/18 02:57:25;;;;;;;1.13;0.77;;;;;;;7.08;30.85;93388.53;5015823;28;20038;-89
2022/01/18 03:00:06;;;;;;;1.83;0.93;;;;;;;7.44;29.91;93384.53;5017025;28;20051;-88
2022/01/18 03:05:32;;;;;;;0.90;0.75;;;;;;;8.03;29.33;93429.94;5002294;28;20056;-89
2022/01/18 03:08:10;;;;;;;;;;;;;;;;;;;;;
2022/01/18 03:10:46;;;;;;;1.55;0.80;;;;;;;7.21;30.48;93384.78;5001503;28;20077;-89
2022/01/18 03:13:19;;;;;;;1.13;0.90;;;;;;;7.17;30.62;93410.53;5031238;28;20087;-89
2022/01/18 03:15:55;;;;;;;;;;;;;;;;;;;;;
2022/01/18 03:18:31;;;;;;;1.38;0.80;;;;;;;7.76;29.11;93411.69;5015626;28;20035;-88
2022/01/18 03:20:59;;;;;;;1.13;0.68;;;;;;;7.90;28.92;93410.25;5012031;28;20037;-89
2022/01/18 03:23:35;;;;;;;0.85;0.60;;;;;;;8.05;29.28;93461.78;5010951;28;20034;-88
2022/01/18 03:26:15;;;;;;;1.95;0.88;;;;;;;7.74;29.74;93450.25;4997279;28;20052;-88
2022/01/18 03:28:46;;;;;;;0.65;0.60;;;;;;;7.80;29.29;93470.13;4995652;28;20096;-88
2022/01/18 03:31:24;;;;;;;0.80;0.55;;;;;;;7.64;28.77;93451.69;5013416;28;20045;-88
2022/01/18 03:33:53;;;;;;;0.82;0.63;;;;;;;7.67;29.50;93451.22;5015215;28;20041;-89
2022/01/18 03:36:26;;;;;;;0.75;0.70;;;;;;;7.53;29.23;93429.16;5015555;28;20029;-89
2022/01/18 03:39:01;;;;;;;1.05;0.70;;;;;;;8.13;28.65;93480.38;5000643;28;20505;-89
2022/01/18 03:41:34;;;;;;;1.02;0.77;;;;;;;7.71;29.08;93426.22;4986365;28;20133;-88
2022/01/18 03:44:00;;;;;;;1.38;0.82;;;;;;;7.84;29.23;93473.81;5012325;28;20046;-90
2022/01/18 03:46:36;;;;;;;0.80;0.70;;;;;;;7.57;29.04;93447.72;4996321;28;20382;-88
2022/01/18 03:49:10;;;;;;;1.52;0.90;;;;;;;7.76;29.13;93493.28;4979637;28;20034;-89
2022/01/18 03:51:42;;;;;;;1.40;0.70;;;;;;;7.33;29.46;93444.56;4979820;28;20045;-88
2022/01/18 03:54:27;;;;;;;1.83;0.90;;;;;;;7.32;29.61;93463.81;4996473;28;20037;-88
2022/01/18 03:56:55;;;;;;;1.05;0.77;;;;;;;7.51;29.79;93493.75;5013241;28;20073;-89
2022/01/18 03:59:23;;;;;;;0.95;0.75;;;;;;;7.36;29.02;93472.72;5024685;28;20057;-89
2022/01/18 04:01:51;;;;;;;1.25;0.88;;;;;;;7.30;29.01;93461.47;5014438;28;20045;-89
2022/01/18 04:04:19;;;;;;;0.80;0.70;;;;;;;7.64;28.95;93476.97;4991945;28;20144;-88
2022/01/18 04:06:47;;;;;;;0.45;0.45;;;;;;;7.39;29.23;93452.19;5013798;28;20499;-89
2022/01/18 04:09:16;;;;;;;2.20;0.85;;;;;;;7.70;29.42;93513.28;5029887;28;20072;-89
2022/01/18 04:11:44;;;;;;;1.67;0.82;;;;;;;7.21;31.74;93468.91;5029370;28;20068;-88
2022/01/18 04:14:23;;;;;;;1.23;0.70;;;;;;;7.06;33.13;93492.91;5032014;28;20079;-89
2022/01/18 04:17:11;;;;;;;1.00;0.70;;;;;;;6.52;33.37;93451.00;4976325;28;20046;-88
2022/01/18 04:28:08;;;;;;;1.30;0.80;;;;;;;6.36;34.52;93530.59;5005450;28;20037;-88
2022/01/18 04:30:34;;;;;;;1.25;0.80;;;;;;;6.16;35.00;93538.84;4996170;28;20038;-88
2022/01/18 04:33:07;;;;;;;4.30;1.20;;;;;;;5.63;35.40;93470.53;4995817;28;20856;-88
2022/01/18 04:35:37;;;;;;;2.50;1.00;;;;;;;5.99;35.25;93540.59;5013910;28;20044;-88
2022/01/18 04:38:08;;;;;;;1.92;1.17;;;;;;;5.84;35.55;93541.84;4975584;28;20044;-88
2022/01/18 04:40:44;;;;;;;1.67;0.90;;;;;;;5.25;36.90;93472.91;5012606;28;20045;-88
2022/01/18 04:43:24;;;;;;;1.60;0.80;;;;;;;5.52;37.23;93546.69;5011764;28;20057;-88
2022/01/18 04:48:36;;;;;;;1.73;0.98;;;;;;;4.84;37.26;93478.03;5018241;28;20037;-88
2022/01/18 04:51:07;;;;;;;1.67;1.00;;;;;;;4.74;37.35;93477.78;5028667;28;20049;-88
2022/01/18 04:53:53;;;;;;;1.52;1.00;;;;;;;4.93;37.59;93518.19;5012787;28;20087;-87
2022/01/18 04:57:51;;;;;;;1.27;0.90;;;;;;;4.83;37.74;93524.94;5012889;28;20075;-88
2022/01/18 04:59:21;;;;;;;2.05;1.10;;;;;;;4.52;38.34;93496.47;5012657;28;20188;-88
2022/01/18 05:01:52;;;;;;;1.42;0.80;;;;;;;4.68;37.79;93528.75;5028838;28;20494;-88
2022/01/18 05:04:32;;;;;;;0.70;0.60;;;;;;;4.77;38.36;93553.38;5030493;28;20047;-88
2022/01/18 05:07:07;;;;;;;1.00;0.70;;;;;;;4.63;38.30;93546.00;5009608;28;20034;-88
2022/01/18 05:09:45;;;;;;;1.15;0.80;;;;;;;4.55;38.14;93534.94;5013271;28;20066;-88
2022/01/18 05:12:30;;;;;;;2.05;1.20;;;;;;;4.47;38.20;93519.69;4997533;28;20041;-88
2022/01/18 05:15:05;;;;;;;3.75;1.60;;;;;;;4.34;38.20;93499.16;4996786;28;20033;-89
2022/01/18 05:18:59;;;;;;;2.60;1.20;;;;;;;4.55;39.15;93547.13;5001485;28;20026;-88
2022/01/18 05:20:54;;;;;;;2.15;0.90;;;;;;;4.11;38.99;93511.03;5002756;28;20056;-88
2022/01/18 05:23:23;;;;;;;1.35;0.90;;;;;;;4.48;39.33;93587.91;5016968;28;20044;-89
2022/01/18 05:25:51;;;;;;;1.75;0.73;;;;;;;4.21;39.46;93567.56;4996179;28;20038;-88
2022/01/18 05:28:22;;;;;;;2.22;0.80;;;;;;;4.12;40.19;93559.28;4992925;28;20042;-88
2022/01/18 05:30:48;;;;;;;1.65;0.82;;;;;;;3.78;40.39;93511.47;5028582;28;20183;-88
2022/01/18 05:33:14;;;;;;;2.78;1.00;;;;;;;4.04;40.63;93582.13;5028609;28;20487;-88
2022/01/18 05:35:45;;;;;;;1.17;0.73;;;;;;;3.67;40.17;93535.53;5029864;28;20038;-88
2022/01/18 05:38:11;;;;;;;1.05;0.77;;;;;;;3.63;40.57;93534.41;5011195;28;20034;-88
2022/01/18 05:40:44;;;;;;;1.73;0.90;;;;;;;3.79;40.34;93564.88;5012532;28;20033;-88
2022/01/18 05:43:24;;;;;;;1.90;1.20;;;;;;;3.62;40.88;93551.72;5012018;28;20037;-88
2022/01/18 05:45:50;;;;;;;1.33;0.85;;;;;;;3.53;41.51;93548.66;5012061;28;20099;-88
2022/01/18 05:48:16;;;;;;;1.25;0.80;;;;;;;3.81;41.66;93614.66;5028680;28;20033;-88
2022/01/18 05:50:44;;;;;;;2.35;1.10;;;;;;;3.44;41.56;93552.50;4986558;28;20038;-87
2022/01/18 05:53:12;;;;;;;1.92;1.00;;;;;;;3.68;41.87;93607.03;4992424;28;20088;-88
2022/01/18 05:55:45;;;;;;;2.22;1.00;;;;;;;3.46;42.12;93591.91;4993507;28;20132;-88
2022/01/18 05:58:45;;;;;;;2.17;1.05;;;;;;;3.33;42.57;93592.03;4991907;28;20030;-88
2022/01/18 06:01:24;;;;;;;;;;;;;;;;;;;;;
2022/01/18 06:07:47;;;;;;;1.88;0.93;;;;;;;2.99;43.12;93576.03;4981997;28;20054;-92
2022/01/18 06:10:23;;;;;;;1.92;1.10;;;;;;;3.05;43.76;93603.66;5000423;28;20490;-92
2022/01/18 06:13:09;;;;;;;2.20;1.20;;;;;;;2.80;44.07;93585.56;5025717;28;20045;-91
2022/01/18 06:15:44;;;;;;;1.63;1.05;;;;;;;3.02;43.46;93616.22;5019208;28;20037;-91
2022/01/18 06:18:38;;;;;;;1.98;1.00;;;;;;;3.07;43.90;93640.44;5028202;28;20069;-90
2022/01/18 06:21:08;;;;;;;2.25;1.02;;;;;;;2.96;43.59;93623.03;5031175;28;20029;-90
2022/01/18 06:23:39;;;;;;;2.42;1.30;;;;;;;2.75;43.92;93606.09;5002937;28;20049;-91
2022/01/18 06:26:05;;;;;;;1.83;1.10;;;;;;;2.71;44.15;93610.88;4966808;28;20041;-90
2022/01/18 06:28:38;;;;;;;3.30;1.20;;;;;;;2.98;44.65;93662.41;4982718;28;20084;-89
2022/01/18 06:31:37;;;;;;;1.90;1.15;;;;;;;3.05;44.88;93694.19;4950127;29;20043;-89
2022/01/18 06:34:02;;;;;;;2.22;1.15;;;;;;;2.81;44.82;93671.69;4981116;28;20061;-90
2022/01/18 06:36:31;;;;;;;2.67;1.30;;;;;;;2.47;45.45;93634.88;5014898;28;20026;-91
2022/01/18 06:39:04;;;;;;;2.65;1.40;;;;;;;2.38;45.17;93641.31;5014934;28;20041;-90
2022/01/18 06:41:32;;;;;;;2.67;1.35;;;;;;;2.33;45.43;93657.44;5014988;28;20100;-90
2022/01/18 06:44:08;;;;;;;2.33;1.08;;;;;;;2.40;45.50;93685.81;4998532;28;20029;-90
2022/01/18 06:47:01;;;;;;;2.47;1.10;;;;;;;2.25;45.79;93668.81;4961460;28;20484;-89
2022/01/18 06:53:31;;;;;;;2.47;1.10;;;;;;;2.64;45.71;93749.75;4975072;28;20097;-90
2022/01/18 06:55:57;;;;;;;1.92;1.15;;;;;;;2.52;45.85;93735.88;4958373;28;20502;-90
2022/01/18 06:58:24;;;;;;;2.60;1.35;;;;;;;2.44;46.62;93731.72;4946496;28;20420;-89
2022/01/18 07:00:49;;;;;;;3.28;1.10;;;;;;;2.53;46.44;93747.03;4954148;28;20587;-87
2022/01/18 07:03:17;;;;;;;3.15;1.17;;;;;;;2.49;46.51;93751.78;4967714;28;20042;-88
2022/01/18 07:05:42;;;;;;;2.42;1.05;;;;;;;2.38;46.88;93734.34;4992533;28;20049;-89
2022/01/18 07:08:08;;;;;;;2.22;1.00;;;;;;;2.27;46.80;93728.84;4995084;28;20034;-88
2022/01/18 07:10:34;;;;;;;4.40;1.40;;;;;;;2.38;46.72;93739.50;4988378;28;20727;-89
2022/01/18 07:13:00;;;;;;;5.88;1.10;;;;;;;2.31;46.83;93736.16;5011214;28;20041;-89
2022/01/18 07:15:26;;;;;;;2.45;0.90;;;;;;;2.55;47.08;93782.00;4999487;28;20042;-88
2022/01/18 07:17:52;;;;;;;8.40;1.30;;;;;;;2.54;47.48;93780.41;5011147;28;20034;-89
2022/01/18 07:20:18;;;;;;;2.05;1.20;;;;;;;2.57;47.53;93787.75;5009922;28;20492;-89
2022/01/18 07:22:43;;;;;;;1.65;1.05;;;;;;;3.28;45.51;93755.72;4983842;28;20038;-89
2022/01/18 07:25:11;;;;;;;2.45;1.20;;;;;;;5.69;42.01;93777.19;4999189;28;20483;-89
2022/01/18 07:27:37;;;;;;;2.40;1.30;;;;;;;8.10;37.05;93783.38;4985219;28;20056;-89
2022/01/18 07:30:03;;;;;;;6.47;1.60;;;;;;;9.99;33.13;93784.72;4962110;28;20061;-89
2022/01/18 07:32:29;;;;;;;18.15;2.00;;;;;;;11.41;30.29;93784.91;5007243;28;20034;-89
2022/01/18 07:34:57;;;;;;;4.95;1.20;;;;;;;12.80;27.89;93783.06;4985659;28;20045;-90
2022/01/18 07:37:23;;;;;;;6.78;1.73;;;;;;;13.95;26.41;93784.56;4982085;28;20087;-89
2022/01/18 07:39:51;;;;;;;8.02;1.88;;;;;;;14.80;24.80;93784.38;4980306;28;20043;-89
2022/01/18 07:42:21;;;;;;;7.32;1.50;;;;;;;15.71;23.39;93771.88;5002109;28;20085;-90
2022/01/18 07:44:46;;;;;;;1.95;1.20;;;;;;;16.75;22.11;93788.44;5010445;28;20046;-89
2022/01/18 07:47:12;;;;;;;2.97;1.20;;;;;;;17.51;21.52;93795.97;4991205;28;20057;-90
2022/01/18 07:49:38;;;;;;;3.45;1.45;;;;;;;18.20;20.40;93779.91;4991163;28;20073;-90
2022/01/18 07:52:04;;;;;;;4.13;1.50;;;;;;;18.97;18.99;93798.44;4992901;28;20038;-90
2022/01/18 07:54:30;;;;;;;2.90;1.42;;;;;;;19.92;18.68;93800.53;5006764;28;20100;-89
2022/01/18 07:56:55;;;;;;;4.07;2.08;;;;;;;20.38;18.10;93796.47;4977604;28;20467;-90
2022/01/18 07:59:27;;;;;;;3.78;1.80;;;;;;;21.14;17.02;93802.97;5000700;28;20050;-89
2022/01/18 08:01:53;;;;;;;7.72;2.15;;;;;;;21.68;16.66;93813.84;4985658;28;20046;-90
2022/01/18 08:04:19;;;;;;;6.32;2.80;;;;;;;21.97;16.29;93809.59;4993158;28;20037;-90
2022/01/18 08:06:44;;;;;;;7.78;3.90;;;;;;;21.57;16.13;93813.47;4987669;28;20046;-90
2022/01/18 08:09:16;;;;;;;11.52;4.13;;;;;;;20.46;17.20;93808.94;4989904;28;20475;-90
2022/01/18 08:11:42;;;;;;;10.80;4.45;;;;;;;20.69;17.12;93796.28;4996825;28;20484;-90
2022/01/18 08:14:13;;;;;;;7.88;4.30;;;;;;;21.75;16.17;93808.00;4993556;28;20026;-90
2022/01/18 08:19:16;;;;;;;12.38;5.28;;;;;;;20.90;16.78;93817.66;5010587;28;20177;-90
2022/01/18 08:21:41;;;;;;;10.02;4.78;;;;;;;21.03;16.54;93818.56;5010549;28;20038;-90
2022/01/18 08:24:10;;;;;;;10.82;5.18;;;;;;;22.61;15.31;93822.56;4977217;28;20560;-90
2022/01/18 08:26:36;;;;;;;9.27;4.63;;;;;;;23.77;13.81;93795.75;4990768;28;20061;-91
2022/01/18 08:29:04;;;;;;;8.52;4.53;;;;;;;23.96;13.83;93823.78;5008872;28;20139;-90
2022/01/18 08:31:31;;;;;;;10.07;4.97;;;;;;;22.14;14.93;93822.00;4991816;28;20041;-90
2022/01/18 08:33:57;;;;;;;9.48;4.88;;;;;;;23.02;14.42;93826.25;4994234;28;20140;-90
2022/01/18 08:36:23;;;;;;;11.55;5.55;;;;;;;23.33;13.80;93816.94;5009573;28;21197;-90
2022/01/18 08:38:49;;;;;;;9.32;5.07;;;;;;;22.29;15.01;93836.66;5008639;28;20042;-90
2022/01/18 08:41:16;;;;;;;8.98;4.50;;;;;;;23.14;14.71;93840.72;4971024;28;20092;-90
2022/01/18 08:43:42;;;;;;;12.35;6.22;;;;;;;24.48;12.99;93823.78;5015172;28;20387;-91
2022/01/18 08:46:28;;;;;;;11.80;6.00;;;;;;;23.23;14.29;93841.41;5015999;28;20120;-90
2022/01/18 08:52:52;;;;;;;16.33;6.75;;;;;;;24.53;13.24;93825.44;4994180;28;20428;-90
2022/01/18 08:55:19;;;;;;;16.65;6.95;;;;;;;24.85;12.95;93845.03;4994191;28;20088;-91
2022/01/18 08:57:48;;;;;;;12.73;6.38;;;;;;;26.30;12.16;93852.66;4976871;28;20054;-91
2022/01/18 09:00:15;;;;;;;10.88;5.80;;;;;;;26.21;12.02;93855.56;4993956;28;20046;-91
2022/01/18 09:02:41;;;;;;;13.85;6.70;;;;;;;25.56;12.75;93858.69;4993964;28;20043;-92
2022/01/18 09:05:07;;;;;;;12.90;5.72;;;;;;;25.48;12.52;93865.75;4992891;28;20080;-91
2022/01/18 09:07:37;;;;;;;13.48;5.82;;;;;;;25.23;12.63;93862.47;4977210;28;20030;-90
2022/01/18 09:10:07;;;;;;;13.55;5.72;;;;;;;23.41;13.63;93874.03;4976911;28;20133;-90
2022/01/18 09:12:36;;;;;;;13.20;6.03;;;;;;;22.41;14.77;93856.19;4976836;28;20031;-90
2022/01/18 09:15:05;;;;;;;12.90;6.32;;;;;;;19.70;18.18;93884.59;4978923;28;20049;-90
2022/01/18 09:17:35;;;;;;;16.92;7.07;;;;;;;19.16;18.30;93875.16;4979100;28;20030;-90
2022/01/18 09:20:06;;;;;;;15.40;6.32;;;;;;;18.18;18.62;93885.41;4996103;28;20057;-90
2022/01/18 09:22:38;;;;;;;15.43;6.47;;;;;;;17.83;19.52;93873.72;4998645;28;20034;-90
2022/01/18 09:25:07;;;;;;;12.57;6.18;;;;;;;16.69;23.05;93884.78;4998534;28;20134;-90
2022/01/18 09:27:33;;;;;;;19.65;6.13;;;;;;;15.92;22.81;93874.56;4997610;28;20026;-90
2022/01/18 09:30:02;;;;;;;17.45;7.13;;;;;;;15.71;23.62;93895.97;4979745;28;20502;-90
2022/01/18 09:32:32;;;;;;;18.20;7.15;;;;;;;15.31;24.39;93881.34;4980082;28;20034;-90
2022/01/18 09:34:58;;;;;;;52.72;8.85;;;;;;;14.88;25.15;93865.47;5012576;28;20383;-90
2022/01/18 09:37:29;;;;;;;26.80;7.07;;;;;;;15.96;23.73;93879.03;4979751;28;20033;-90
2022/01/18 09:39:59;;;;;;;23.67;7.22;;;;;;;15.20;24.31;93873.56;5015792;28;20046;-89
2022/01/18 09:42:39;;;;;;;25.33;7.55;;;;;;;15.02;24.27;93879.56;4983575;28;20042;-90
2022/01/18 09:45:18;;;;;;;30.50;6.97;;;;;;;15.06;25.05;93856.84;5015781;28;20046;-90
2022/01/18 09:47:50;;;;;;;20.58;8.48;;;;;;;15.11;24.50;93892.94;5015975;28;20654;-91
2022/01/18 09:50:22;;;;;;;24.58;7.75;;;;;;;15.76;23.52;93863.44;5017179;28;20041;-90
2022/01/18 09:53:07;;;;;;;20.02;8.43;;;;;;;16.37;21.48;93867.84;5017465;28;20032;-90
2022/01/18 09:55:40;;;;;;;17.25;7.05;;;;;;;16.59;22.38;93906.09;5015901;28;20057;-90
2022/01/18 09:58:09;;;;;;;16.80;6.63;;;;;;;16.13;23.32;93861.88;5015831;28;20045;-90
2022/01/18 10:04:49;;;;;;;21.05;8.43;;;;;;;15.85;22.34;93890.78;5016724;28;20037;-91
2022/01/18 10:11:16;;;;;;;18.08;8.27;;;;;;;17.53;20.41;93912.94;5029501;28;20076;-91
2022/01/18 10:19:23;;;;;;;14.55;7.32;;;;;;;16.21;22.00;93933.34;5017046;28;20121;-91
2022/01/18 10:27:18;;;;;;;24.80;9.15;;;;;;;14.55;24.67;93939.81;5017152;28;20047;-91
2022/01/18 10:31:03;;;;;;;23.00;9.98;;;;;;;15.04;24.34;93943.38;4999339;28;20037;-91
2022/01/18 10:33:36;;;;;;;25.10;9.95;;;;;;;14.79;24.01;93933.81;4996136;28;20073;-91
2022/01/18 10:40:30;;;;;;;;;;;;;;;15.26;24.12;93931.53;5017087;28;20037;-91
2022/01/18 10:46:58;;;;;;;21.58;10.10;;;;;;;15.23;23.73;93897.81;5016422;28;20114;-91
2022/01/18 10:53:25;;;;;;;26.42;10.57;;;;;;;15.09;24.71;93909.03;5018600;28;20129;-91
2022/01/18 11:00:05;;;;;;;;;;;;;;;16.27;22.95;93923.47;5016923;28;20048;-92
2022/01/18 11:03:04;;;;;;;20.67;8.45;;;;;;;16.40;22.15;93924.63;5015697;28;19917;-92
2022/01/18 11:05:33;;;;;;;19.85;8.68;;;;;;;16.28;22.34;93911.84;5018375;28;20414;-91
2022/01/18 11:12:28;;;;;;;22.75;8.80;;;;;;;16.97;21.82;93919.25;5035802;28;20441;-92
2022/01/18 11:19:01;;;;;;;20.08;8.38;;;;;;;15.67;22.28;93917.91;5035570;28;20391;-91
2022/01/18 11:26:05;;;;;;;15.32;7.28;;;;;;;14.50;25.12;93926.66;5035406;28;20040;-92
2022/01/18 11:47:28;;;;;;;24.38;8.45;;;;;;;15.54;23.73;93912.25;5034985;28;20092;-91
2022/01/18 11:58:24;;;;;;;16.52;6.40;;;;;;;15.55;22.53;93916.44;5034859;28;20055;-91
2022/01/18 12:36:43;;;;;;;15.35;5.50;;;;;;;16.16;21.57;93906.19;5034409;28;20045;-92
2022/01/18 14:55:48;;;;;;;11.25;4.78;;;;;;;9.58;30.27;93906.47;5064687;28;20056;-92
2022/01/18 14:58:14;;;;;;;18.15;5.95;;;;;;;9.22;30.67;93898.22;5010412;28;20042;-90
2022/01/18 15:00:41;;;;;;;23.25;6.38;;;;;;;9.05;30.77;93908.72;4963116;28;20390;-90
2022/01/18 15:03:08;;;;;;;13.50;5.13;;;;;;;8.92;31.21;93914.28;5013728;28;20042;-90
2022/01/18 15:05:34;;;;;;;21.77;7.60;;;;;;;9.00;30.62;93926.13;4977584;28;20040;-89
2022/01/18 15:08:00;;;;;;;20.55;7.28;;;;;;;9.25;30.72;93900.31;4993537;28;20128;-90
2022/01/18 15:10:26;;;;;;;14.70;5.78;;;;;;;9.19;30.69;93903.94;4994625;28;20029;-89
2022/01/18 15:12:54;;;;;;;19.75;7.00;;;;;;;9.29;30.91;93919.72;4996149;28;20798;-91
2022/01/18 15:15:24;;;;;;;20.50;7.25;;;;;;;9.73;30.25;93919.72;4979254;28;20033;-90
2022/01/18 15:18:01;;;;;;;23.77;7.97;;;;;;;9.31;30.20;93869.84;5012105;28;20033;-90
2022/01/18 15:20:53;;;;;;;17.60;7.65;;;;;;;8.91;31.05;93897.81;5030647;28;20044;-90
2022/01/18 15:23:28;;;;;;;21.98;8.10;;;;;;;8.50;31.89;93892.00;5032594;28;20033;-91
2022/01/18 15:26:03;;;;;;;25.65;7.28;;;;;;;8.58;32.30;93924.75;4990207;28;20125;-91
2022/01/18 15:28:35;;;;;;;21.98;7.75;;;;;;;8.50;32.62;93935.59;4990077;28;20390;-90
2022/01/18 15:31:08;;;;;;;20.20;8.15;;;;;;;8.22;32.60;93900.69;4968443;28;20038;-92
2022/01/18 15:36:51;;;;;;;24.27;8.13;;;;;;;8.07;33.04;93903.81;4990717;28;20046;-90
2022/01/18 15:39:20;;;;;;;19.52;6.85;;;;;;;7.75;32.85;93868.88;5007985;28;20104;-90
2022/01/18 15:41:50;;;;;;;19.95;7.43;;;;;;;7.84;33.32;93888.31;5031543;28;20045;-91
2022/01/18 15:44:19;;;;;;;18.50;7.28;;;;;;;7.77;33.71;93887.66;4983043;28;20068;-89
2022/01/18 15:47:13;;;;;;;20.75;8.00;;;;;;;7.54;34.23;93875.53;4995301;28;20038;-90
2022/01/18 15:49:46;;;;;;;18.75;7.10;;;;;;;7.35;34.04;93872.31;4972804;28;20095;-90
2022/01/18 15:52:14;;;;;;;24.45;7.93;;;;;;;7.54;34.24;93914.59;4995869;28;20695;-90
2022/01/18 15:54:49;;;;;;;19.65;8.18;;;;;;;7.34;34.01;93910.59;5004581;28;20090;-90
2022/01/18 15:57:34;;;;;;;21.17;7.70;;;;;;;7.13;34.73;93893.75;5018232;28;20054;-90
2022/01/18 16:00:14;;;;;;;22.75;7.70;;;;;;;7.24;34.75;93921.59;5014902;28;20051;-90
2022/01/18 16:02:43;;;;;;;23.80;8.10;;;;;;;6.88;34.76;93881.03;5016577;28;20056;-90
2022/01/18 16:05:46;;;;;;;21.95;7.35;;;;;;;6.76;34.45;93888.84;5014143;28;20096;-90
2022/01/18 16:08:20;;;;;;;24.63;8.13;;;;;;;6.68;34.04;93889.97;4997394;28;20121;-91
2022/01/18 16:10:49;;;;;;;21.15;7.68;;;;;;;6.78;35.33;93917.25;5022053;28;20442;-90
2022/01/18 16:13:27;;;;;;;20.73;6.75;;;;;;;6.52;35.85;93887.28;5015125;28;20087;-90
2022/01/18 16:16:18;;;;;;;18.77;7.20;;;;;;;6.59;35.93;93926.97;5005092;28;20502;-90
2022/01/18 16:18:53;;;;;;;20.98;7.45;;;;;;;6.16;35.83;93879.44;4998738;28;20037;-90
2022/01/18 16:21:38;;;;;;;21.60;7.85;;;;;;;6.12;36.01;93898.31;4996581;28;20049;-90
2022/01/18 16:24:23;;;;;;;26.77;8.50;;;;;;;6.29;36.20;93940.06;5030524;28;20033;-90
2022/01/18 16:27:02;;;;;;;;;;;;;;;;;;;;;
2022/01/18 16:29:33;;;;;;;19.80;6.97;;;;;;;6.19;36.19;93951.00;4990005;28;20041;-90
2022/01/18 16:35:00;;;;;;;19.27;7.47;;;;;;;5.81;36.15;93926.91;4996774;28;20057;-89
2022/01/18 16:37:31;;;;;;;21.63;7.22;;;;;;;5.75;37.42;93922.59;5029287;28;20031;-89
2022/01/18 16:40:00;;;;;;;25.38;8.60;;;;;;;5.62;37.42;93930.56;5029737;28;20049;-89
2022/01/18 16:42:42;;;;;;;21.70;7.32;;;;;;;5.87;37.31;93979.81;4988933;28;20042;-90
2022/01/18 17:06:31;;;;;;;;;;;;;;;;;;;;;
2022/01/18 17:10:16;;;;;;;;;;;;;;;;;;;;;
2022/01/18 17:30:06;;;;;;;37.88;12.95;;;;;;;4.50;43.27;94031.91;4706329;30;20052;-89
2022/01/18 17:33:46;;;;;;;30.55;11.23;;;;;;;4.43;43.25;94038.94;4708497;30;20051;-90
2022/01/18 17:40:28;;;;;;;27.45;10.02;;;;;;;4.27;43.50;94037.66;4896406;23;21665;-81
2022/01/18 17:42:54;;;;;;;29.35;11.93;;;;;;;4.24;43.75;94046.63;5053938;28;20090;-81
2022/01/18 17:45:20;;;;;;;28.48;10.32;;;;;;;4.19;44.59;94049.06;5052308;28;20028;-80
2022/01/18 17:47:46;;;;;;;36.13;13.20;;;;;;;4.17;44.10;94048.47;5038103;28;20044;-80
2022/01/18 17:50:12;;;;;;;42.63;14.85;;;;;;;4.10;44.77;94045.91;5071636;28;20029;-78
2022/01/18 17:52:38;;;;;;;40.80;12.27;;;;;;;4.08;44.55;94052.31;5069887;28;20025;-80
2022/01/18 17:55:04;;;;;;;39.00;11.18;;;;;;;4.06;44.76;94051.72;5068659;28;20035;-81
2022/01/18 17:57:30;;;;;;;30.98;11.65;;;;;;;3.99;45.33;94062.13;5050286;28;20406;-80
2022/01/18 17:59:55;;;;;;;30.92;11.73;;;;;;;3.96;45.19;94055.56;5049338;28;20040;-79
2022/01/18 18:02:21;;;;;;;34.33;12.70;;;;;;;3.89;45.23;94054.78;5031371;28;20036;-78
2022/01/18 18:04:46;;;;;;;34.70;12.68;;;;;;;3.84;45.86;94059.00;5034426;28;20036;-77
2022/01/18 18:07:13;;;;;;;33.25;12.23;;;;;;;3.78;45.80;94060.59;5049834;28;20040;-76
2022/01/18 18:09:38;;;;;;;34.80;11.65;;;;;;;3.74;45.77;94054.25;5048776;28;20033;-79